DRS weather

Dresden Airport
Dresden, Saxony, Germany

Public forecast

Using degrees Celsius for public forecast. Weather courtesy of forecast.io.

Current aviation weather report (METAR) for Dresden Airport

Retrieved 2020/02/20 10:20 UTC (19 minutes ago):

EDDC 201020Z 23008KT 190V270 9999 BKN022 07/02 Q1020 NOSIG

Aviation forecast (TAF) for Dresden Airport

Retrieved 2020/02/20 06:27 UTC (4 hours ago):

TAF EDDC 200500Z 2006/2106 20008KT 9999 BKN030 BECMG 2020/2023 20013KT BECMG 2023/2101 20015G25KT BECMG 2101/2103 26020G35KT PROB30 TEMPO 2101/2104 26020G40KT RA BKN012